Time;durP1;ratioP1;P1;durP2;ratioP2;P2;SDS_P1;SDS_P2;PMS_P1;PMS_P2;Temp;Humidity;BMP_temperature;BMP_pressure;BME280_temperature;BME280_humidity;BME280_pressure;Samples;Min_cycle;Max_cycle;Signal;HPM_P1;HPM_P2
2023/10/13 00:01:34;;;;;;;89.73;42.20;;;;;;;;;;5049629;28;20080;-62
2023/10/13 00:04:05;;;;;;;79.97;40.70;;;;;;;;;;5049899;28;20052;-62
2023/10/13 00:06:31;;;;;;;73.70;38.77;;;;;;;;;;5050253;28;20045;-62
2023/10/13 00:08:57;;;;;;;85.50;40.93;;;;;;;;;;5062618;28;20088;-62
2023/10/13 00:11:26;;;;;;;82.67;40.80;;;;;;;;;;5069933;28;20079;-63
2023/10/13 00:13:54;;;;;;;76.50;38.93;;;;;;;;;;5069290;28;20052;-62
2023/10/13 00:16:28;;;;;;;81.13;40.60;;;;;;;;;;5069531;28;20052;-62
2023/10/13 00:18:57;;;;;;;86.10;39.63;;;;;;;;;;5069680;28;20131;-62
2023/10/13 00:21:32;;;;;;;74.97;38.63;;;;;;;;;;5068946;28;20486;-62
2023/10/13 00:24:01;;;;;;;75.37;38.40;;;;;;;;;;5069091;28;20079;-62
2023/10/13 00:26:28;;;;;;;101.97;43.33;;;;;;;;;;5050977;28;20499;-62
2023/10/13 00:31:36;;;;;;;79.53;40.10;;;;;;;;;;5049529;28;20565;-63
2023/10/13 00:34:09;;;;;;;88.80;40.67;;;;;;;;;;5049508;28;20075;-62
2023/10/13 00:36:36;;;;;;;85.77;42.00;;;;;;;;;;5048970;28;20052;-62
2023/10/13 00:39:07;;;;;;;82.30;40.03;;;;;;;;;;5048949;28;20045;-62
2023/10/13 00:44:41;;;;;;;69.47;38.30;;;;;;;;;;5026624;28;20049;-62
2023/10/13 00:47:09;;;;;;;102.03;43.83;;;;;;;;;;5026415;28;20045;-63
2023/10/13 00:49:39;;;;;;;84.13;41.30;;;;;;;;;;5037857;28;20119;-62
2023/10/13 00:52:06;;;;;;;95.23;43.40;;;;;;;;;;5048381;28;20045;-62
2023/10/13 00:54:35;;;;;;;89.30;42.27;;;;;;;;;;5048972;28;20049;-62
2023/10/13 00:57:07;;;;;;;101.87;44.93;;;;;;;;;;5048284;28;20504;-62
2023/10/13 00:59:42;;;;;;;81.05;40.53;;;;;;;;;;5049566;28;20041;-62
2023/10/13 01:04:54;;;;;;;85.00;41.87;;;;;;;;;;5048863;28;20045;-62
2023/10/13 01:07:22;;;;;;;76.90;39.27;;;;;;;;;;5048150;28;20510;-63
2023/10/13 01:09:48;;;;;;;95.53;44.10;;;;;;;;;;5067972;28;20045;-62
2023/10/13 01:12:14;;;;;;;103.17;47.30;;;;;;;;;;5067392;28;20150;-63
2023/10/13 01:14:40;;;;;;;97.83;44.87;;;;;;;;;;5067429;28;20503;-63
2023/10/13 01:17:06;;;;;;;111.40;47.10;;;;;;;;;;5052186;28;20049;-63
2023/10/13 01:19:42;;;;;;;83.97;42.67;;;;;;;;;;5055403;28;20044;-63
2023/10/13 01:22:08;;;;;;;102.17;44.50;;;;;;;;;;5061923;28;20041;-63
2023/10/13 01:24:37;;;;;;;115.17;46.30;;;;;;;;;;5054026;28;20049;-63
2023/10/13 01:27:19;;;;;;;88.53;42.63;;;;;;;;;;5049440;28;20048;-63
2023/10/13 01:30:09;;;;;;;88.82;43.08;;;;;;;;;;5068926;28;20047;-62
2023/10/13 01:32:32;;;;;;;67.70;38.20;;;;;;;;;;5066224;28;20056;-63
2023/10/13 01:35:05;;;;;;;65.60;37.27;;;;;;;;;;5049836;28;20090;-63
2023/10/13 01:37:31;;;;;;;;;;;;;;;;;;5053306;28;20057;-63
2023/10/13 01:39:57;;;;;;;78.43;39.03;;;;;;;;;;5052563;28;19965;-63
2023/10/13 01:42:24;;;;;;;75.47;37.77;;;;;;;;;;5052170;28;20052;-63
2023/10/13 01:44:50;;;;;;;73.77;36.67;;;;;;;;;;5052315;28;20052;-63
2023/10/13 01:47:17;;;;;;;86.83;40.47;;;;;;;;;;5052751;28;20040;-63
2023/10/13 01:49:46;;;;;;;67.00;36.40;;;;;;;;;;5052652;28;20088;-63
2023/10/13 01:52:15;;;;;;;95.07;39.90;;;;;;;;;;5052336;28;20052;-63
2023/10/13 01:54:44;;;;;;;79.63;37.60;;;;;;;;;;5052404;28;20067;-63
2023/10/13 01:57:14;;;;;;;75.20;36.27;;;;;;;;;;5051966;28;20061;-62
2023/10/13 01:59:44;;;;;;;70.30;36.83;;;;;;;;;;5052339;28;20049;-63
2023/10/13 02:02:12;;;;;;;56.83;35.37;;;;;;;;;;5052208;28;20155;-62
2023/10/13 02:04:43;;;;;;;68.23;34.87;;;;;;;;;;5051959;28;20969;-62
2023/10/13 02:07:14;;;;;;;96.90;39.80;;;;;;;;;;5059658;28;20313;-62
2023/10/13 02:09:42;;;;;;;72.73;35.17;;;;;;;;;;5068983;28;20510;-63
2023/10/13 02:12:09;;;;;;;61.33;34.87;;;;;;;;;;5051725;28;20115;-62
2023/10/13 02:14:36;;;;;;;66.00;33.30;;;;;;;;;;5052224;28;21461;-62
2023/10/13 02:17:12;;;;;;;61.53;33.17;;;;;;;;;;5051104;28;20044;-62
2023/10/13 02:19:45;;;;;;;56.97;33.43;;;;;;;;;;5058819;28;20052;-62
2023/10/13 02:22:11;;;;;;;66.05;33.00;;;;;;;;;;5051013;28;20052;-62
2023/10/13 02:24:40;;;;;;;59.03;31.20;;;;;;;;;;5070128;28;20198;-63
2023/10/13 02:27:13;;;;;;;58.23;31.20;;;;;;;;;;5070447;28;20453;-62
2023/10/13 02:29:45;;;;;;;54.75;30.65;;;;;;;;;;5071333;28;20052;-63
2023/10/13 02:32:20;;;;;;;65.68;32.22;;;;;;;;;;5069878;28;20076;-62
2023/10/13 02:34:47;;;;;;;57.73;31.63;;;;;;;;;;5071287;28;20113;-62
2023/10/13 02:37:13;;;;;;;70.47;33.73;;;;;;;;;;5070903;28;20396;-62
2023/10/13 02:39:42;;;;;;;65.17;31.23;;;;;;;;;;5071114;28;20053;-63
2023/10/13 02:42:15;;;;;;;55.57;29.30;;;;;;;;;;5070681;28;20588;-62
2023/10/13 02:44:45;;;;;;;59.57;31.67;;;;;;;;;;5071306;28;20052;-62
2023/10/13 02:47:15;;;;;;;71.27;32.23;;;;;;;;;;5070856;28;20055;-62
2023/10/13 02:49:46;;;;;;;65.13;31.40;;;;;;;;;;5070883;28;20131;-63
2023/10/13 02:52:12;;;;;;;55.47;29.27;;;;;;;;;;5071014;28;20052;-62
2023/10/13 02:54:50;;;;;;;70.90;30.77;;;;;;;;;;5070932;28;20504;-63
2023/10/13 02:57:17;;;;;;;75.97;32.00;;;;;;;;;;5069450;28;20059;-62
2023/10/13 02:59:46;;;;;;;58.67;28.60;;;;;;;;;;5070936;28;20070;-63
2023/10/13 03:02:25;;;;;;;52.93;27.07;;;;;;;;;;5070931;28;20052;-63
2023/10/13 03:04:51;;;;;;;52.60;27.93;;;;;;;;;;5070831;28;20036;-63
2023/10/13 03:07:23;;;;;;;51.70;27.33;;;;;;;;;;5070960;28;20060;-63
2023/10/13 03:09:50;;;;;;;71.37;31.23;;;;;;;;;;5070859;28;20070;-63
2023/10/13 03:12:17;;;;;;;53.30;29.83;;;;;;;;;;5070312;28;20116;-63
2023/10/13 03:14:47;;;;;;;78.53;34.50;;;;;;;;;;5070443;28;20537;-63
2023/10/13 03:17:16;;;;;;;76.47;33.80;;;;;;;;;;5070435;28;20133;-63
2023/10/13 03:19:49;;;;;;;66.73;32.57;;;;;;;;;;5070312;28;20079;-63
2023/10/13 03:22:16;;;;;;;74.70;33.97;;;;;;;;;;5070134;28;20048;-63
2023/10/13 03:24:46;;;;;;;85.80;35.73;;;;;;;;;;5069906;28;20041;-62
2023/10/13 03:27:16;;;;;;;62.23;30.63;;;;;;;;;;5070293;28;20055;-63
2023/10/13 03:29:46;;;;;;;68.23;32.33;;;;;;;;;;5070075;28;20094;-63
2023/10/13 03:32:12;;;;;;;75.47;34.40;;;;;;;;;;5070256;28;20040;-63
2023/10/13 03:34:46;;;;;;;86.63;37.10;;;;;;;;;;5069901;28;20044;-63
2023/10/13 03:37:18;;;;;;;73.27;34.83;;;;;;;;;;5069822;28;20057;-63
2023/10/13 03:39:45;;;;;;;78.93;35.57;;;;;;;;;;5070158;28;20051;-63
2023/10/13 03:42:18;;;;;;;78.07;35.23;;;;;;;;;;5069790;28;20045;-63
2023/10/13 03:44:46;;;;;;;69.47;34.27;;;;;;;;;;5070211;28;20044;-63
2023/10/13 03:47:19;;;;;;;65.17;33.87;;;;;;;;;;5070055;28;20041;-63
2023/10/13 03:49:50;;;;;;;80.45;36.95;;;;;;;;;;5068924;28;20044;-63
2023/10/13 03:52:22;;;;;;;94.67;39.97;;;;;;;;;;5070079;28;20060;-63
2023/10/13 03:54:51;;;;;;;72.17;35.53;;;;;;;;;;5069335;28;20049;-64
2023/10/13 03:57:17;;;;;;;73.50;35.20;;;;;;;;;;5069316;28;20056;-63
2023/10/13 03:59:47;;;;;;;78.33;37.00;;;;;;;;;;5069860;28;20049;-63
2023/10/13 04:02:17;;;;;;;92.33;38.73;;;;;;;;;;5066866;28;20115;-63
2023/10/13 04:04:49;;;;;;;76.57;35.87;;;;;;;;;;5049547;28;20098;-63
2023/10/13 04:15:39;;;;;;;93.17;37.43;;;;;;;;;;5049901;28;20487;-63
2023/10/13 04:18:13;;;;;;;77.30;35.27;;;;;;;;;;5049517;28;20053;-63
2023/10/13 04:20:42;;;;;;;77.23;35.53;;;;;;;;;;5048858;28;20049;-63
2023/10/13 04:23:19;;;;;;;72.03;35.20;;;;;;;;;;5049413;28;20057;-63
2023/10/13 04:39:00;;;;;;;81.53;35.33;;;;;;;;;;5048691;28;20406;-64
2023/10/13 04:44:22;;;;;;;62.67;29.20;;;;;;;;;;5048504;28;20075;-63
2023/10/13 04:55:24;;;;;;;48.27;26.73;;;;;;;;;;5046705;28;20056;-63
2023/10/13 04:58:00;;;;;;;43.73;23.53;;;;;;;;;;5047021;28;20057;-64
2023/10/13 05:44:32;;;;;;;48.87;24.43;;;;;;;;;;5068922;28;20049;-64
2023/10/13 06:28:41;;;;;;;19.97;12.97;;;;;;;;;;5054949;28;20048;-63
2023/10/13 06:31:07;;;;;;;27.80;14.70;;;;;;;;;;5061678;28;20052;-64
2023/10/13 06:33:33;;;;;;;28.77;15.43;;;;;;;;;;5057247;28;20090;-63
2023/10/13 06:36:08;;;;;;;29.73;15.63;;;;;;;;;;5051382;28;20044;-63
2023/10/13 06:38:38;;;;;;;18.43;12.27;;;;;;;;;;5050518;28;20061;-63
2023/10/13 06:41:07;;;;;;;21.07;14.37;;;;;;;;;;5051394;28;20467;-64
2023/10/13 06:43:40;;;;;;;18.07;12.03;;;;;;;;;;5051229;28;20439;-63
2023/10/13 06:46:07;;;;;;;22.98;11.75;;;;;;;;;;5051050;28;20506;-64
2023/10/13 06:48:34;;;;;;;23.03;9.73;;;;;;;;;;5050627;28;20127;-64
2023/10/13 06:51:06;;;;;;;18.80;9.70;;;;;;;;;;5050509;28;20045;-64
2023/10/13 06:53:38;;;;;;;16.80;8.63;;;;;;;;;;5050970;28;20095;-64
2023/10/13 06:56:09;;;;;;;20.60;9.90;;;;;;;;;;5050863;28;20090;-64
2023/10/13 06:58:35;;;;;;;13.57;7.17;;;;;;;;;;5048896;28;20519;-64
2023/10/13 07:01:01;;;;;;;14.47;8.37;;;;;;;;;;5049055;28;20482;-64
2023/10/13 07:03:27;;;;;;;13.93;8.30;;;;;;;;;;5050774;28;20059;-64
2023/10/13 07:05:53;;;;;;;13.47;7.90;;;;;;;;;;5050793;28;20080;-63
2023/10/13 07:08:20;;;;;;;13.73;7.37;;;;;;;;;;5051028;28;20110;-63
2023/10/13 07:11:05;;;;;;;17.27;7.57;;;;;;;;;;5049313;28;20037;-63
2023/10/13 07:13:31;;;;;;;17.00;7.50;;;;;;;;;;5050836;28;20052;-63
2023/10/13 07:16:05;;;;;;;16.53;6.70;;;;;;;;;;5050198;28;20045;-63
2023/10/13 07:18:36;;;;;;;13.77;7.20;;;;;;;;;;5050348;28;20053;-63
2023/10/13 07:21:09;;;;;;;19.10;7.50;;;;;;;;;;5050497;28;20066;-63
2023/10/13 07:23:35;;;;;;;;;;;;;;;;;;5050906;28;20075;-63
2023/10/13 07:26:05;;;;;;;21.30;9.87;;;;;;;;;;5065918;28;19920;-63
2023/10/13 07:28:31;;;;;;;19.47;9.93;;;;;;;;;;5069713;28;20094;-63
2023/10/13 07:33:26;;;;;;;17.47;9.23;;;;;;;;;;5049211;28;20049;-63
2023/10/13 07:36:11;;;;;;;21.70;10.30;;;;;;;;;;5050136;28;20049;-64
2023/10/13 07:38:41;;;;;;;19.93;9.70;;;;;;;;;;5049814;28;20064;-64
2023/10/13 07:41:09;;;;;;;22.53;9.80;;;;;;;;;;5049124;28;20056;-64
2023/10/13 07:43:37;;;;;;;22.77;10.80;;;;;;;;;;5052788;28;20087;-63
2023/10/13 07:46:09;;;;;;;24.87;10.53;;;;;;;;;;5061056;28;20053;-63
2023/10/13 07:48:35;;;;;;;20.73;10.93;;;;;;;;;;5049332;28;20072;-63
2023/10/13 07:51:03;;;;;;;25.83;11.40;;;;;;;;;;5057748;28;20041;-63
2023/10/13 07:53:34;;;;;;;18.30;9.50;;;;;;;;;;5069587;28;20135;-63
2023/10/13 07:56:07;;;;;;;22.10;10.63;;;;;;;;;;5054233;28;20044;-64
2023/10/13 07:58:33;;;;;;;23.90;11.32;;;;;;;;;;5049505;28;20084;-64
2023/10/13 08:01:16;;;;;;;18.00;10.40;;;;;;;;;;5049273;28;20045;-63
2023/10/13 08:03:45;;;;;;;23.73;11.03;;;;;;;;;;5049481;28;20064;-63
2023/10/13 08:08:43;;;;;;;22.73;11.17;;;;;;;;;;5049513;28;20526;-63
2023/10/13 08:13:53;;;;;;;27.67;10.07;;;;;;;;;;5049348;28;20063;-63
2023/10/13 08:16:23;;;;;;;23.83;11.73;;;;;;;;;;5049453;28;20407;-63
2023/10/13 08:18:49;;;;;;;20.77;10.87;;;;;;;;;;5049168;28;20110;-63
2023/10/13 08:21:19;;;;;;;22.10;11.23;;;;;;;;;;5047889;28;20075;-63
2023/10/13 08:24:29;;;;;;;24.77;12.07;;;;;;;;;;5048593;28;20510;-63
2023/10/13 08:42:40;;;;;;;21.70;13.30;;;;;;;;;;5049024;28;20060;-63
2023/10/13 08:56:17;;;;;;;21.47;11.47;;;;;;;;;;5048220;28;20086;-63
2023/10/13 09:04:20;;;;;;;28.37;11.70;;;;;;;;;;5048443;28;20479;-63
2023/10/13 09:07:09;;;;;;;16.97;8.53;;;;;;;;;;5048447;28;20411;-62
2023/10/13 09:09:58;;;;;;;19.37;9.87;;;;;;;;;;5048393;28;20067;-63
2023/10/13 09:12:35;;;;;;;20.97;10.13;;;;;;;;;;5048093;28;20549;-63
2023/10/13 09:25:33;;;;;;;19.13;9.63;;;;;;;;;;5047716;28;20052;-63
2023/10/13 09:28:00;;;;;;;15.60;8.20;;;;;;;;;;5047965;28;20503;-63
2023/10/13 09:30:30;;;;;;;16.27;8.93;;;;;;;;;;5048364;28;20045;-63
2023/10/13 09:33:04;;;;;;;16.77;8.20;;;;;;;;;;5048111;28;20156;-63
2023/10/13 09:35:33;;;;;;;25.73;10.40;;;;;;;;;;5047736;28;20525;-63
2023/10/13 09:38:02;;;;;;;18.07;8.30;;;;;;;;;;5047583;28;20068;-63
2023/10/13 09:42:56;;;;;;;21.07;8.77;;;;;;;;;;5047600;28;20060;-62
2023/10/13 09:45:28;;;;;;;19.67;8.73;;;;;;;;;;5048195;28;20037;-63
2023/10/13 09:47:57;;;;;;;21.50;8.37;;;;;;;;;;5048042;28;20048;-63
2023/10/13 09:50:33;;;;;;;23.80;9.23;;;;;;;;;;5048438;28;20086;-62
2023/10/13 09:53:00;;;;;;;19.67;7.93;;;;;;;;;;5047787;28;20513;-63
2023/10/13 09:55:29;;;;;;;19.40;9.53;;;;;;;;;;5048540;28;20052;-62
2023/10/13 09:57:59;;;;;;;18.20;8.47;;;;;;;;;;5051310;28;20063;-62
2023/10/13 10:06:18;;;;;;;24.53;8.03;;;;;;;;;;5051473;28;20049;-63
2023/10/13 10:08:50;;;;;;;18.67;7.63;;;;;;;;;;5051566;28;20056;-62
2023/10/13 10:11:27;;;;;;;17.17;6.77;;;;;;;;;;5051842;28;20041;-62
2023/10/13 10:13:57;;;;;;;12.97;6.80;;;;;;;;;;5051101;28;20044;-62
2023/10/13 10:16:32;;;;;;;20.00;8.10;;;;;;;;;;5051488;28;20081;-62
2023/10/13 10:19:01;;;;;;;13.47;6.60;;;;;;;;;;5051153;28;20091;-62
2023/10/13 10:21:35;;;;;;;18.83;7.77;;;;;;;;;;5051655;28;20056;-62
2023/10/13 10:24:08;;;;;;;18.27;7.27;;;;;;;;;;5051478;28;20049;-62
2023/10/13 10:26:34;;;;;;;21.75;7.35;;;;;;;;;;5050980;28;20500;-64
2023/10/13 10:29:07;;;;;;;17.63;6.57;;;;;;;;;;5049300;28;20458;-64
2023/10/13 10:31:42;;;;;;;21.97;7.80;;;;;;;;;;5051097;28;20084;-66
2023/10/13 10:34:28;;;;;;;20.97;8.20;;;;;;;;;;5054227;28;20136;-62
2023/10/13 10:36:55;;;;;;;16.70;7.60;;;;;;;;;;5055470;28;20099;-63
2023/10/13 10:39:33;;;;;;;19.03;7.83;;;;;;;;;;5071051;28;20052;-63
2023/10/13 10:42:07;;;;;;;19.00;7.83;;;;;;;;;;5057251;28;20423;-62
2023/10/13 10:44:42;;;;;;;19.50;8.53;;;;;;;;;;5051231;28;20444;-63
2023/10/13 10:47:19;;;;;;;21.60;6.77;;;;;;;;;;5050507;28;20045;-63
2023/10/13 10:49:45;;;;;;;23.17;8.57;;;;;;;;;;5068517;28;20071;-63
2023/10/13 10:52:18;;;;;;;15.33;7.50;;;;;;;;;;5057319;28;20049;-62
2023/10/13 10:54:44;;;;;;;17.90;7.25;;;;;;;;;;5067769;28;20593;-63
2023/10/13 10:57:17;;;;;;;20.07;7.27;;;;;;;;;;5069923;28;20052;-62
2023/10/13 10:59:43;;;;;;;17.05;6.70;;;;;;;;;;5071173;28;20044;-63
2023/10/13 11:02:09;;;;;;;19.33;7.97;;;;;;;;;;5059134;28;20499;-62
2023/10/13 11:04:41;;;;;;;18.33;7.63;;;;;;;;;;5059897;28;20051;-62
2023/10/13 11:07:08;;;;;;;18.20;6.60;;;;;;;;;;5067239;28;20625;-63
2023/10/13 11:09:45;;;;;;;16.23;6.20;;;;;;;;;;5069210;28;20059;-63
2023/10/13 11:12:16;;;;;;;17.77;6.73;;;;;;;;;;5064340;28;20056;-62
2023/10/13 11:14:46;;;;;;;15.37;6.03;;;;;;;;;;5065812;28;20055;-63
2023/10/13 11:17:21;;;;;;;19.67;7.03;;;;;;;;;;5064184;28;20041;-63
2023/10/13 11:19:48;;;;;;;25.20;7.30;;;;;;;;;;5058332;28;20414;-62
2023/10/13 11:22:32;;;;;;;21.27;6.37;;;;;;;;;;5061116;28;20113;-62
2023/10/13 11:24:59;;;;;;;18.23;6.40;;;;;;;;;;5059117;28;20048;-62
2023/10/13 11:27:44;;;;;;;18.77;6.47;;;;;;;;;;5050938;28;20053;-62
2023/10/13 11:30:14;;;;;;;18.87;7.67;;;;;;;;;;5053226;28;20048;-63
2023/10/13 11:32:41;;;;;;;15.77;6.27;;;;;;;;;;5059519;28;20406;-62
2023/10/13 11:35:20;;;;;;;21.80;6.53;;;;;;;;;;5068298;28;20049;-62
2023/10/13 11:37:55;;;;;;;11.37;5.30;;;;;;;;;;5068823;28;20052;-62
2023/10/13 11:40:43;;;;;;;15.63;6.17;;;;;;;;;;5069665;28;20052;-62
2023/10/13 11:43:13;;;;;;;14.83;6.20;;;;;;;;;;5067613;28;20586;-62
2023/10/13 11:45:52;;;;;;;12.50;6.20;;;;;;;;;;5057491;28;20071;-62
2023/10/13 11:48:33;;;;;;;14.13;5.70;;;;;;;;;;5062995;28;20468;-62
2023/10/13 11:50:59;;;;;;;20.13;7.40;;;;;;;;;;5068399;28;20090;-62
2023/10/13 11:53:27;;;;;;;13.53;5.97;;;;;;;;;;5069039;28;20052;-62
2023/10/13 11:55:53;;;;;;;20.57;6.20;;;;;;;;;;5068876;28;20048;-62
2023/10/13 11:58:19;;;;;;;16.70;6.17;;;;;;;;;;5068336;28;20040;-62
2023/10/13 12:01:07;;;;;;;13.73;6.40;;;;;;;;;;5067788;28;20418;-62
2023/10/13 12:06:22;;;;;;;15.47;5.93;;;;;;;;;;5069160;28;20097;-62
2023/10/13 12:08:52;;;;;;;15.50;6.05;;;;;;;;;;5068834;28;20117;-62
2023/10/13 12:11:30;;;;;;;16.20;6.53;;;;;;;;;;5068211;28;20041;-62
2023/10/13 12:13:56;;;;;;;18.73;7.70;;;;;;;;;;5068697;28;20044;-62
2023/10/13 12:16:22;;;;;;;17.00;5.63;;;;;;;;;;5067598;28;20041;-62
2023/10/13 12:18:53;;;;;;;22.93;6.17;;;;;;;;;;5067751;28;20066;-62
2023/10/13 12:21:22;;;;;;;18.20;6.57;;;;;;;;;;5068685;28;20055;-62
2023/10/13 12:23:50;;;;;;;22.53;7.33;;;;;;;;;;5068701;28;20048;-62
2023/10/13 12:26:19;;;;;;;17.23;6.73;;;;;;;;;;5068682;28;20053;-62
2023/10/13 12:29:06;;;;;;;18.00;5.73;;;;;;;;;;5068223;28;20048;-62
2023/10/13 12:31:32;;;;;;;19.37;6.70;;;;;;;;;;5068286;28;20048;-62
2023/10/13 12:34:06;;;;;;;17.60;5.53;;;;;;;;;;5068357;28;20044;-62
2023/10/13 12:36:41;;;;;;;16.30;6.23;;;;;;;;;;5068299;28;20060;-62
2023/10/13 12:52:19;;;;;;;19.23;6.40;;;;;;;;;;5067360;28;20422;-62
2023/10/13 12:57:23;;;;;;;18.33;5.97;;;;;;;;;;5067789;28;20098;-63
2023/10/13 12:59:53;;;;;;;16.60;6.33;;;;;;;;;;5067897;28;20037;-62
2023/10/13 13:02:20;;;;;;;16.50;5.60;;;;;;;;;;5067867;28;20478;-63
2023/10/13 13:04:50;;;;;;;16.13;7.03;;;;;;;;;;5067915;28;20169;-63
2023/10/13 13:07:16;;;;;;;14.73;5.63;;;;;;;;;;5067928;28;20159;-63
2023/10/13 13:09:43;;;;;;;16.60;5.70;;;;;;;;;;5067798;28;20059;-62
2023/10/13 13:12:12;;;;;;;15.00;6.03;;;;;;;;;;5067807;28;20048;-62
2023/10/13 13:14:40;;;;;;;16.23;6.30;;;;;;;;;;5067000;28;20127;-62
2023/10/13 13:17:06;;;;;;;16.70;6.00;;;;;;;;;;5067627;28;20505;-62
2023/10/13 13:19:41;;;;;;;20.67;6.43;;;;;;;;;;5067548;28;20062;-63
2023/10/13 13:22:11;;;;;;;19.43;6.03;;;;;;;;;;5067800;28;20512;-62
2023/10/13 13:24:43;;;;;;;21.97;6.13;;;;;;;;;;5067610;28;20044;-62
2023/10/13 13:27:09;;;;;;;14.70;5.47;;;;;;;;;;5066885;28;20052;-62
2023/10/13 13:29:37;;;;;;;17.60;5.97;;;;;;;;;;5067767;28;20414;-62
2023/10/13 13:32:05;;;;;;;17.50;7.27;;;;;;;;;;5070614;28;20060;-62
2023/10/13 13:34:31;;;;;;;17.77;6.00;;;;;;;;;;5071437;28;20060;-63
2023/10/13 13:37:00;;;;;;;19.93;5.80;;;;;;;;;;5070826;28;20389;-62
2023/10/13 13:39:29;;;;;;;15.83;6.63;;;;;;;;;;5071243;28;20059;-62
2023/10/13 13:41:58;;;;;;;20.07;6.67;;;;;;;;;;5071435;28;20048;-62
2023/10/13 13:44:35;;;;;;;20.80;7.20;;;;;;;;;;5071123;28;20165;-62
2023/10/13 13:47:11;;;;;;;22.60;8.20;;;;;;;;;;5071065;28;20049;-63
2023/10/13 13:49:40;;;;;;;21.17;8.30;;;;;;;;;;5071315;28;20048;-63
2023/10/13 13:52:06;;;;;;;21.83;7.67;;;;;;;;;;5071136;28;20053;-64
2023/10/13 13:54:32;;;;;;;18.47;9.00;;;;;;;;;;5070965;28;20094;-64
2023/10/13 13:56:58;;;;;;;21.10;9.00;;;;;;;;;;5071050;28;20056;-64
2023/10/13 13:59:24;;;;;;;21.77;9.50;;;;;;;;;;5071091;28;20381;-64
2023/10/13 14:01:52;;;;;;;15.03;8.30;;;;;;;;;;5070705;28;20048;-63
2023/10/13 14:04:18;;;;;;;23.90;9.70;;;;;;;;;;5070984;28;20586;-63
2023/10/13 14:06:44;;;;;;;21.83;9.83;;;;;;;;;;5070989;28;20131;-64
2023/10/13 14:09:44;;;;;;;19.90;9.83;;;;;;;;;;5071120;28;20056;-63
2023/10/13 14:14:57;;;;;;;22.63;9.30;;;;;;;;;;5070715;28;20049;-63
2023/10/13 14:17:33;;;;;;;23.03;9.47;;;;;;;;;;5070496;28;20052;-63
2023/10/13 14:20:09;;;;;;;24.40;9.30;;;;;;;;;;5070767;28;20130;-64
2023/10/13 14:22:37;;;;;;;23.60;9.77;;;;;;;;;;5069359;28;20067;-64
2023/10/13 14:25:08;;;;;;;22.67;10.67;;;;;;;;;;5070335;28;20071;-63
2023/10/13 14:27:35;;;;;;;20.80;9.80;;;;;;;;;;5070884;28;20432;-63
2023/10/13 14:30:02;;;;;;;17.97;9.47;;;;;;;;;;5070747;28;20174;-63
2023/10/13 14:32:28;;;;;;;17.77;9.03;;;;;;;;;;5070692;28;20048;-63
2023/10/13 14:34:56;;;;;;;23.80;9.83;;;;;;;;;;5070597;28;20051;-63
2023/10/13 14:37:30;;;;;;;31.17;9.80;;;;;;;;;;5070356;28;20089;-63
2023/10/13 14:39:57;;;;;;;21.20;10.13;;;;;;;;;;5069292;28;20052;-64
2023/10/13 14:42:26;;;;;;;19.60;10.17;;;;;;;;;;5070193;28;20048;-64
2023/10/13 14:44:56;;;;;;;21.20;8.67;;;;;;;;;;5070171;28;20071;-63
2023/10/13 14:47:24;;;;;;;22.40;9.10;;;;;;;;;;5068344;28;20044;-63
2023/10/13 14:49:54;;;;;;;25.47;10.10;;;;;;;;;;5068212;28;20055;-64
2023/10/13 14:52:21;;;;;;;29.80;10.77;;;;;;;;;;5069110;28;20045;-64
2023/10/13 14:54:48;;;;;;;24.13;10.90;;;;;;;;;;5068509;28;20045;-64
2023/10/13 14:57:14;;;;;;;26.23;10.53;;;;;;;;;;5069620;28;20072;-63
2023/10/13 14:59:40;;;;;;;21.30;10.60;;;;;;;;;;5069873;28;20137;-63
2023/10/13 15:02:06;;;;;;;25.80;10.77;;;;;;;;;;5070213;28;20041;-63
2023/10/13 15:04:33;;;;;;;27.53;11.97;;;;;;;;;;5070015;28;20054;-64
2023/10/13 15:07:01;;;;;;;22.27;11.00;;;;;;;;;;5070207;28;20075;-64
2023/10/13 15:09:28;;;;;;;28.80;11.10;;;;;;;;;;5070220;28;20047;-64
2023/10/13 15:11:54;;;;;;;21.60;10.93;;;;;;;;;;5069469;28;20066;-64
2023/10/13 15:14:22;;;;;;;24.27;13.17;;;;;;;;;;5069865;28;20422;-64
2023/10/13 15:16:48;;;;;;;29.77;13.93;;;;;;;;;;5069821;28;20071;-63
2023/10/13 15:19:16;;;;;;;27.87;12.80;;;;;;;;;;5069919;28;20048;-64
2023/10/13 15:21:47;;;;;;;29.57;13.17;;;;;;;;;;5069988;28;20076;-64
2023/10/13 15:24:13;;;;;;;26.60;12.93;;;;;;;;;;5068456;28;20087;-63
2023/10/13 15:26:45;;;;;;;30.33;13.07;;;;;;;;;;5069168;28;20036;-64
2023/10/13 15:29:16;;;;;;;28.17;12.90;;;;;;;;;;5069540;28;20135;-64
2023/10/13 15:31:48;;;;;;;30.83;13.23;;;;;;;;;;5069466;28;20573;-64
2023/10/13 15:34:15;;;;;;;23.98;12.57;;;;;;;;;;5069488;28;20494;-64
2023/10/13 15:36:44;;;;;;;31.47;12.13;;;;;;;;;;5069419;28;20041;-64
2023/10/13 15:39:11;;;;;;;29.93;12.33;;;;;;;;;;5069010;28;20567;-63
2023/10/13 15:41:40;;;;;;;22.80;12.53;;;;;;;;;;5069312;28;20147;-63
2023/10/13 15:44:09;;;;;;;20.03;11.07;;;;;;;;;;5069178;28;20084;-63
2023/10/13 15:46:35;;;;;;;28.00;11.63;;;;;;;;;;5068747;28;20052;-64
2023/10/13 15:49:05;;;;;;;23.80;10.60;;;;;;;;;;5069182;28;20114;-63
2023/10/13 15:51:32;;;;;;;26.97;10.43;;;;;;;;;;5069253;28;20045;-64
2023/10/13 15:54:00;;;;;;;22.40;7.57;;;;;;;;;;5068176;28;20089;-64
2023/10/13 15:56:26;;;;;;;21.10;8.67;;;;;;;;;;5068929;28;20484;-64
2023/10/13 15:58:52;;;;;;;21.83;7.90;;;;;;;;;;5068424;28;20040;-64
2023/10/13 16:01:23;;;;;;;21.17;7.60;;;;;;;;;;5065316;28;20537;-64
2023/10/13 16:03:49;;;;;;;18.57;7.07;;;;;;;;;;5049062;28;20095;-64
2023/10/13 16:06:16;;;;;;;15.60;6.70;;;;;;;;;;5060937;28;20036;-64
2023/10/13 16:08:42;;;;;;;15.80;8.33;;;;;;;;;;5062183;28;20048;-64
2023/10/13 16:11:13;;;;;;;20.37;8.10;;;;;;;;;;5068696;28;20048;-65
2023/10/13 16:13:42;;;;;;;15.20;8.23;;;;;;;;;;5049396;28;20041;-64
2023/10/13 16:16:15;;;;;;;16.73;9.40;;;;;;;;;;5059512;28;20057;-64
2023/10/13 16:18:43;;;;;;;19.90;11.68;;;;;;;;;;5062826;28;20059;-64
2023/10/13 16:21:12;;;;;;;27.10;11.47;;;;;;;;;;5054827;28;20124;-64
2023/10/13 16:23:38;;;;;;;26.20;13.43;;;;;;;;;;5059959;28;20037;-64
2023/10/13 16:26:07;;;;;;;29.63;14.87;;;;;;;;;;5063945;28;20051;-64
2023/10/13 16:28:34;;;;;;;24.10;13.13;;;;;;;;;;5068474;28;20052;-64
2023/10/13 16:31:00;;;;;;;32.70;13.77;;;;;;;;;;5067560;28;20082;-63
2023/10/13 16:33:28;;;;;;;26.47;12.93;;;;;;;;;;5066597;28;20406;-63
2023/10/13 16:35:56;;;;;;;29.57;13.57;;;;;;;;;;5065711;28;20068;-64
2023/10/13 16:38:24;;;;;;;32.10;14.20;;;;;;;;;;5053826;28;20479;-64
2023/10/13 16:40:54;;;;;;;25.37;12.00;;;;;;;;;;5067247;28;20482;-64
2023/10/13 16:43:20;;;;;;;27.80;12.90;;;;;;;;;;5064194;28;20052;-63
2023/10/13 16:45:47;;;;;;;34.43;13.77;;;;;;;;;;5066973;28;20044;-64
2023/10/13 16:48:13;;;;;;;24.30;11.33;;;;;;;;;;5066451;28;20052;-64
2023/10/13 16:50:45;;;;;;;23.80;11.60;;;;;;;;;;5059485;28;20496;-63
2023/10/13 16:53:12;;;;;;;22.87;10.17;;;;;;;;;;5068387;28;20045;-63
2023/10/13 16:55:41;;;;;;;25.13;10.63;;;;;;;;;;5067871;28;20048;-63
2023/10/13 16:58:10;;;;;;;20.63;10.43;;;;;;;;;;5061166;28;20063;-63
2023/10/13 17:00:36;;;;;;;21.77;9.30;;;;;;;;;;5067288;28;20415;-63
2023/10/13 17:03:05;;;;;;;17.43;9.20;;;;;;;;;;5066947;28;20050;-64
2023/10/13 17:05:38;;;;;;;15.10;6.83;;;;;;;;;;5063759;28;20044;-63
2023/10/13 17:08:06;;;;;;;;;;;;;;;;;;5068122;28;20043;-63
2023/10/13 17:10:32;;;;;;;17.17;6.43;;;;;;;;;;5065357;28;20015;-63
2023/10/13 17:13:00;;;;;;;15.67;7.17;;;;;;;;;;5054488;28;20044;-63
2023/10/13 17:15:31;;;;;;;14.53;6.20;;;;;;;;;;5067724;28;20494;-63
2023/10/13 17:17:58;;;;;;;19.77;7.00;;;;;;;;;;5059926;28;20067;-63
2023/10/13 17:20:24;;;;;;;17.70;7.17;;;;;;;;;;5060886;28;20449;-62
2023/10/13 17:22:50;;;;;;;22.27;7.90;;;;;;;;;;5067724;28;20135;-63
2023/10/13 17:25:16;;;;;;;19.20;7.83;;;;;;;;;;5067110;28;20040;-62
2023/10/13 17:27:43;;;;;;;19.47;7.20;;;;;;;;;;5052843;28;20041;-62
2023/10/13 17:30:10;;;;;;;16.97;6.97;;;;;;;;;;5066609;28;20040;-63
2023/10/13 17:32:39;;;;;;;23.30;8.63;;;;;;;;;;5059227;28;20462;-62
2023/10/13 17:35:11;;;;;;;19.47;8.27;;;;;;;;;;5071423;28;20036;-63
2023/10/13 17:37:42;;;;;;;18.73;10.07;;;;;;;;;;5067315;28;20532;-62
2023/10/13 17:40:09;;;;;;;18.47;10.10;;;;;;;;;;5068233;28;20127;-63
2023/10/13 17:42:35;;;;;;;17.60;9.40;;;;;;;;;;5056928;28;20044;-63
2023/10/13 17:45:05;;;;;;;26.57;8.87;;;;;;;;;;5056064;28;20044;-63
2023/10/13 17:47:31;;;;;;;25.07;10.63;;;;;;;;;;5047703;28;20164;-63
2023/10/13 17:50:00;;;;;;;16.43;9.10;;;;;;;;;;5046734;28;20592;-63
2023/10/13 17:52:26;;;;;;;23.23;11.20;;;;;;;;;;5046626;28;20206;-62
2023/10/13 17:54:52;;;;;;;22.80;11.37;;;;;;;;;;5046932;28;20439;-63
2023/10/13 17:57:18;;;;;;;28.63;12.37;;;;;;;;;;5046819;28;20619;-64
2023/10/13 17:59:47;;;;;;;21.30;11.27;;;;;;;;;;5046807;28;20053;-62
2023/10/13 18:02:13;;;;;;;27.43;10.63;;;;;;;;;;5046981;28;20415;-63
2023/10/13 18:04:41;;;;;;;28.00;11.90;;;;;;;;;;5047363;28;20049;-62
2023/10/13 18:07:11;;;;;;;24.73;11.33;;;;;;;;;;5047638;28;20561;-63